createdAt,value
2022-12-01T00:00:27.318Z,36.22
2022-12-01T00:02:55.229Z,33.47
2022-12-01T00:05:23.054Z,34.83
2022-12-01T00:07:50.830Z,36.35
2022-12-01T00:10:26.606Z,35.15
2022-12-01T00:12:56.619Z,36.35
2022-12-01T00:15:27.329Z,35.20
2022-12-01T00:17:55.044Z,36.72
2022-12-01T00:20:22.777Z,37.08
2022-12-01T00:22:51.056Z,37.33
2022-12-01T00:25:20.527Z,38.35
2022-12-01T00:27:49.821Z,36.88
2022-12-01T00:30:21.220Z,37.30
2022-12-01T00:32:49.777Z,39.80
2022-12-01T00:35:18.219Z,37.60
2022-12-01T00:37:45.971Z,40.25
2022-12-01T00:40:14.814Z,35.85
2022-12-01T00:42:42.536Z,38.17
2022-12-01T00:45:12.071Z,38.67
2022-12-01T00:47:41.178Z,38.25
2022-12-01T00:50:09.492Z,37.15
2022-12-01T00:52:37.219Z,39.00
2022-12-01T00:55:05.561Z,37.78
2022-12-01T00:57:33.278Z,37.97
2022-12-01T01:00:00.945Z,37.03
2022-12-01T01:02:28.759Z,38.08
2022-12-01T01:05:00.926Z,36.63
2022-12-01T01:07:31.072Z,36.15
2022-12-01T01:09:58.796Z,37.20
2022-12-01T01:12:26.531Z,35.28
2022-12-01T01:14:54.245Z,36.75
2022-12-01T01:17:21.979Z,38.85
2022-12-01T01:19:49.890Z,37.83
2022-12-01T01:22:21.160Z,37.40
2022-12-01T01:24:48.839Z,37.72
2022-12-01T01:27:16.551Z,37.33
2022-12-01T01:29:44.234Z,36.28
2022-12-01T01:32:11.985Z,35.97
2022-12-01T01:34:39.730Z,36.63
2022-12-01T01:37:07.446Z,35.38
2022-12-01T01:39:38.982Z,34.22
2022-12-01T01:42:06.689Z,33.92
2022-12-01T01:44:52.337Z,35.22
2022-12-01T01:47:25.223Z,33.17
2022-12-01T01:49:53.905Z,30.77
2022-12-01T01:52:22.500Z,33.53
2022-12-01T01:54:55.091Z,34.03
2022-12-01T01:57:27.558Z,31.67
2022-12-01T02:00:00.132Z,32.33
2022-12-01T02:02:28.027Z,32.03
2022-12-01T02:05:00.218Z,32.83
2022-12-01T02:07:30.075Z,33.28
2022-12-01T02:09:59.613Z,33.78
2022-12-01T02:12:47.353Z,32.85
2022-12-01T02:15:27.343Z,30.00
2022-12-01T02:18:08.092Z,32.25
2022-12-01T02:20:55.565Z,32.10
2022-12-01T02:23:47.833Z,30.75
2022-12-01T02:26:51.870Z,32.13
2022-12-01T02:29:50.628Z,31.35
2022-12-01T02:32:30.825Z,31.30
2022-12-01T02:35:03.162Z,33.15
2022-12-01T02:37:35.387Z,34.03
2022-12-01T02:40:11.009Z,34.75
2022-12-01T02:42:50.716Z,33.50
2022-12-01T02:45:27.657Z,32.70
2022-12-01T02:48:01.260Z,31.45
2022-12-01T02:50:31.543Z,34.15
2022-12-01T02:53:01.128Z,34.67
2022-12-01T02:55:28.826Z,33.90
2022-12-01T02:57:56.529Z,32.28
2022-12-01T03:00:24.337Z,34.97
2022-12-01T03:03:18.371Z,34.35
2022-12-01T03:05:54.241Z,35.00
2022-12-01T03:08:28.391Z,33.42
2022-12-01T03:10:58.437Z,34.97
2022-12-01T03:13:39.039Z,34.88
2022-12-01T03:16:12.971Z,34.95
2022-12-01T03:18:48.239Z,35.03
2022-12-01T03:21:25.282Z,34.90
2022-12-01T03:23:57.487Z,36.50
2022-12-01T03:26:28.980Z,35.95
2022-12-01T03:29:01.134Z,37.33
2022-12-01T03:31:33.117Z,37.35
2022-12-01T03:34:07.277Z,36.13
2022-12-01T03:36:38.741Z,39.50
2022-12-01T03:39:11.352Z,38.30
2022-12-01T03:41:44.252Z,39.55
2022-12-01T03:44:18.196Z,38.83
2022-12-01T03:46:51.226Z,42.63
2022-12-01T03:49:23.564Z,38.92
2022-12-01T03:52:03.229Z,38.90
2022-12-01T03:54:46.656Z,38.72
2022-12-01T03:57:19.897Z,39.05
2022-12-01T03:59:49.260Z,39.67
2022-12-01T04:02:18.110Z,37.85
2022-12-01T04:04:47.151Z,39.55
2022-12-01T04:07:14.860Z,36.90
2022-12-01T04:09:45.050Z,39.63
2022-12-01T04:12:33.008Z,37.92
2022-12-01T04:15:03.108Z,36.72
2022-12-01T04:17:31.479Z,35.55
2022-12-01T04:20:01.504Z,37.95
2022-12-01T04:22:29.256Z,37.38
2022-12-01T04:24:57.008Z,37.47
2022-12-01T04:27:24.961Z,36.53
2022-12-01T04:29:52.723Z,38.25
2022-12-01T04:32:20.505Z,41.00
2022-12-01T04:34:48.219Z,38.70
2022-12-01T04:37:17.535Z,39.67
2022-12-01T04:39:45.756Z,38.55
2022-12-01T04:42:13.635Z,35.83
2022-12-01T04:44:41.277Z,37.60
2022-12-01T04:47:09.084Z,37.75
2022-12-01T04:49:37.312Z,36.70
2022-12-01T04:52:05.434Z,36.22
2022-12-01T04:54:34.554Z,37.30
2022-12-01T04:57:02.260Z,34.88
2022-12-01T04:59:29.971Z,36.10
2022-12-01T05:01:57.789Z,37.65
2022-12-01T05:04:25.604Z,38.00
2022-12-01T05:06:55.414Z,37.03
2022-12-01T05:09:23.106Z,36.33
2022-12-01T05:11:52.149Z,35.97
2022-12-01T05:14:19.821Z,37.53
2022-12-01T05:16:47.553Z,37.13
2022-12-01T05:19:32.804Z,36.17
2022-12-01T05:22:00.509Z,36.92
2022-12-01T05:24:28.404Z,34.88
2022-12-01T05:26:57.443Z,37.72
2022-12-01T05:29:25.167Z,35.85
2022-12-01T05:31:52.934Z,34.88
2022-12-01T05:34:20.614Z,35.40
2022-12-01T05:36:48.268Z,35.97
2022-12-01T05:39:16.182Z,34.38
2022-12-01T05:41:43.884Z,35.13
2022-12-01T05:44:12.926Z,36.88
2022-12-01T05:46:40.608Z,33.20
2022-12-01T05:49:08.384Z,33.28
2022-12-01T05:51:37.752Z,35.92
2022-12-01T05:54:05.682Z,34.45
2022-12-01T05:56:33.413Z,35.83
2022-12-01T05:59:01.164Z,34.15
2022-12-01T06:01:30.234Z,33.75
2022-12-01T06:03:58.051Z,34.65
2022-12-01T06:06:25.767Z,32.97
2022-12-01T06:08:53.464Z,34.83
2022-12-01T06:11:21.239Z,33.47
2022-12-01T06:13:48.957Z,32.63
2022-12-01T06:16:16.704Z,33.08
2022-12-01T06:18:45.761Z,32.33
2022-12-01T06:21:13.467Z,31.50
2022-12-01T06:23:41.128Z,33.10
2022-12-01T06:26:08.925Z,33.78
2022-12-01T06:28:36.647Z,32.35
2022-12-01T06:31:07.229Z,31.80
2022-12-01T06:33:35.258Z,31.10
2022-12-01T06:36:06.855Z,32.13
2022-12-01T06:38:36.338Z,31.13
2022-12-01T06:41:05.497Z,31.83
2022-12-01T06:43:36.291Z,31.85
2022-12-01T06:46:04.241Z,32.92
2022-12-01T06:48:32.574Z,33.22
2022-12-01T06:51:03.026Z,33.05
2022-12-01T06:53:32.667Z,30.48
2022-12-01T06:56:01.123Z,33.47
2022-12-01T06:58:29.144Z,33.20
2022-12-01T07:00:57.355Z,32.13
2022-12-01T07:03:27.250Z,32.00
2022-12-01T07:05:58.707Z,32.00
2022-12-01T07:08:26.745Z,31.70
2022-12-01T07:10:59.843Z,32.40
2022-12-01T07:13:32.845Z,31.88
2022-12-01T07:16:01.389Z,28.83
2022-12-01T07:18:29.115Z,29.63
2022-12-01T07:21:00.826Z,30.27
2022-12-01T07:23:28.591Z,31.08
2022-12-01T07:26:01.452Z,31.70
2022-12-01T07:28:29.482Z,30.05
2022-12-01T07:31:05.069Z,29.60
2022-12-01T07:33:33.310Z,30.65
2022-12-01T07:36:01.375Z,28.40
2022-12-01T07:38:29.951Z,31.35
2022-12-01T07:41:04.262Z,30.05
2022-12-01T07:43:32.566Z,31.65
2022-12-01T07:46:08.707Z,29.30
2022-12-01T07:48:37.149Z,29.52
2022-12-01T07:51:05.561Z,28.75
2022-12-01T07:53:33.347Z,31.48
2022-12-01T07:56:05.706Z,30.77
2022-12-01T07:58:37.761Z,35.40
2022-12-01T08:01:09.709Z,33.65
2022-12-01T08:03:37.848Z,31.55
2022-12-01T08:06:07.024Z,30.75
2022-12-01T08:08:36.211Z,30.90
2022-12-01T08:11:06.850Z,33.92
2022-12-01T08:13:34.930Z,30.70
2022-12-01T08:16:06.256Z,31.65
2022-12-01T08:18:35.296Z,32.25
2022-12-01T08:21:03.196Z,29.65
2022-12-01T08:23:30.931Z,32.13
2022-12-01T08:26:01.947Z,30.98
2022-12-01T08:28:29.969Z,29.88
2022-12-01T08:30:57.829Z,28.77
2022-12-01T08:33:27.049Z,29.80
2022-12-01T08:35:54.786Z,29.85
2022-12-01T08:38:22.633Z,28.17
2022-12-01T08:40:50.325Z,27.73
2022-12-01T08:43:34.682Z,27.98
2022-12-01T08:46:06.051Z,26.90
2022-12-01T08:48:35.632Z,27.13
2022-12-01T08:51:05.130Z,28.10
2022-12-01T08:53:33.319Z,26.67
2022-12-01T08:56:02.254Z,25.80
2022-12-01T08:58:30.474Z,26.98
2022-12-01T09:01:05.562Z,26.02
2022-12-01T09:03:33.786Z,27.77
2022-12-01T09:06:07.835Z,26.67
2022-12-01T09:08:36.707Z,26.10
2022-12-01T09:11:07.143Z,25.33
2022-12-01T09:13:35.935Z,25.60
2022-12-01T09:16:05.436Z,24.92
2022-12-01T09:18:33.847Z,24.75
2022-12-01T09:21:02.092Z,24.88
2022-12-01T09:23:31.144Z,26.80
2022-12-01T09:26:01.652Z,26.33
2022-12-01T09:28:29.398Z,25.10
2022-12-01T09:30:57.365Z,26.63
2022-12-01T09:33:25.225Z,26.23
2022-12-01T09:35:53.071Z,25.67
2022-12-01T09:38:20.857Z,25.38
2022-12-01T09:40:50.466Z,24.88
2022-12-01T09:43:21.962Z,24.60
2022-12-01T09:45:53.926Z,25.02
2022-12-01T09:48:28.554Z,26.73
2022-12-01T09:50:56.848Z,28.00
2022-12-01T09:53:28.864Z,25.92
2022-12-01T09:56:05.914Z,26.42
2022-12-01T09:58:37.612Z,25.27
2022-12-01T10:01:05.702Z,25.88
2022-12-01T10:03:37.317Z,26.30
2022-12-01T10:06:26.891Z,26.67
2022-12-01T10:09:04.885Z,25.48
2022-12-01T10:11:37.439Z,24.60
2022-12-01T10:14:07.360Z,23.38
2022-12-01T10:16:44.823Z,27.95
2022-12-01T10:19:20.859Z,24.92
2022-12-01T10:22:01.682Z,24.73
2022-12-01T10:24:45.420Z,25.63
2022-12-01T10:27:26.941Z,23.95
2022-12-01T10:30:02.932Z,25.60
2022-12-01T10:32:39.679Z,24.90
2022-12-01T10:35:09.824Z,26.73
2022-12-01T10:37:40.041Z,25.30
2022-12-01T10:40:14.053Z,26.20
2022-12-01T10:42:45.895Z,23.95
2022-12-01T10:45:17.793Z,25.02
2022-12-01T10:48:16.465Z,25.90
2022-12-01T10:50:45.470Z,28.33
2022-12-01T10:53:29.637Z,26.15
2022-12-01T10:56:05.836Z,26.85
2022-12-01T10:58:44.545Z,26.48
2022-12-01T11:01:19.131Z,26.23
2022-12-01T11:03:52.311Z,26.77
2022-12-01T11:06:23.926Z,27.80
2022-12-01T11:08:55.194Z,26.70
2022-12-01T11:11:27.286Z,25.92
2022-12-01T11:13:58.815Z,25.70
2022-12-01T11:16:42.219Z,24.92
2022-12-01T11:19:23.568Z,26.27
2022-12-01T11:21:56.816Z,26.10
2022-12-01T11:24:33.878Z,26.08
2022-12-01T11:27:02.103Z,25.40
2022-12-01T11:29:38.004Z,26.20
2022-12-01T11:32:18.102Z,27.33
2022-12-01T11:34:51.782Z,26.27
2022-12-01T11:37:22.041Z,26.88
2022-12-01T11:39:53.268Z,26.33
2022-12-01T11:42:26.907Z,27.50
2022-12-01T11:45:01.143Z,26.83
2022-12-01T11:47:29.490Z,26.65
2022-12-01T11:49:59.152Z,26.83
2022-12-01T11:52:32.619Z,26.60
2022-12-01T11:55:20.692Z,26.67
2022-12-01T11:57:51.640Z,25.50
2022-12-01T12:00:23.528Z,28.35
2022-12-01T12:03:09.618Z,26.98
2022-12-01T12:06:11.643Z,25.80
2022-12-01T12:08:58.729Z,25.05
2022-12-01T12:11:39.236Z,25.95
2022-12-01T12:14:23.641Z,24.27
2022-12-01T12:17:11.132Z,25.92
2022-12-01T12:20:12.677Z,24.95
2022-12-01T12:22:55.272Z,24.95
2022-12-01T12:25:31.446Z,27.25
2022-12-01T12:28:20.753Z,26.23
2022-12-01T12:30:57.980Z,23.05
2022-12-01T12:33:45.624Z,25.23
2022-12-01T12:36:26.076Z,25.80
2022-12-01T12:39:04.314Z,25.75
2022-12-01T12:41:37.721Z,25.88
2022-12-01T12:44:20.944Z,22.63
2022-12-01T12:47:01.709Z,23.65
2022-12-01T12:49:44.173Z,23.45
2022-12-01T12:52:17.126Z,24.35
2022-12-01T12:54:50.165Z,24.42
2022-12-01T12:57:28.395Z,24.15
2022-12-01T13:00:04.061Z,23.15
2022-12-01T13:02:36.418Z,23.95
2022-12-01T13:05:13.908Z,23.58
2022-12-01T13:07:48.777Z,23.95
2022-12-01T13:10:25.828Z,24.13
2022-12-01T13:12:59.716Z,23.88
2022-12-01T13:15:36.576Z,23.00
2022-12-01T13:18:13.763Z,22.95
2022-12-01T13:20:43.970Z,22.30
2022-12-01T13:23:16.016Z,23.45
2022-12-01T13:25:45.390Z,24.48
2022-12-01T13:28:19.495Z,23.52
2022-12-01T13:31:00.286Z,23.20
2022-12-01T13:33:28.133Z,23.85
2022-12-01T13:36:29.974Z,23.30
2022-12-01T13:38:58.092Z,23.02
2022-12-01T13:41:29.398Z,25.10
2022-12-01T13:44:04.457Z,24.90
2022-12-01T13:46:51.544Z,23.67
2022-12-01T13:49:39.814Z,23.15
2022-12-01T13:52:36.156Z,26.38
2022-12-01T13:55:27.897Z,24.27
2022-12-01T13:58:24.979Z,24.40
2022-12-01T14:00:53.141Z,24.60
2022-12-01T14:03:40.131Z,25.40
2022-12-01T14:06:13.867Z,26.00
2022-12-01T14:08:49.024Z,24.48
2022-12-01T14:11:23.525Z,24.65
2022-12-01T14:13:56.362Z,26.13
2022-12-01T14:16:48.160Z,24.50
2022-12-01T14:19:31.232Z,25.98
2022-12-01T14:22:00.168Z,24.50
2022-12-01T14:24:35.665Z,24.98
2022-12-01T14:29:35.476Z,24.45
2022-12-01T14:32:24.130Z,23.70
2022-12-01T14:35:02.140Z,25.48
2022-12-01T14:37:51.172Z,25.02
2022-12-01T14:40:26.037Z,27.33
2022-12-01T14:43:15.419Z,25.02
2022-12-01T14:45:54.075Z,26.17
2022-12-01T14:48:27.719Z,27.58
2022-12-01T14:51:08.528Z,25.50
2022-12-01T14:53:41.874Z,24.13
2022-12-01T14:56:15.649Z,26.20
2022-12-01T14:58:56.074Z,25.90
2022-12-01T15:01:25.118Z,26.70
2022-12-01T15:04:02.945Z,24.48
2022-12-01T15:06:33.551Z,26.13
2022-12-01T15:09:32.820Z,23.98
2022-12-01T15:12:02.553Z,25.02
2022-12-01T15:14:33.066Z,24.77
2022-12-01T15:17:02.715Z,24.95
2022-12-01T15:19:33.388Z,24.92
2022-12-01T15:22:08.548Z,24.88
2022-12-01T15:24:36.444Z,25.85
2022-12-01T15:27:06.169Z,25.35
2022-12-01T15:29:38.555Z,25.67
2022-12-01T15:32:08.576Z,23.83
2022-12-01T15:34:39.198Z,22.77
2022-12-01T15:37:12.102Z,23.55
2022-12-01T15:39:44.995Z,25.38
2022-12-01T15:42:24.667Z,23.23
2022-12-01T15:45:00.527Z,25.42
2022-12-01T15:47:35.708Z,23.73
2022-12-01T15:50:04.429Z,23.25
2022-12-01T15:52:32.770Z,25.00
2022-12-01T15:55:05.332Z,24.52
2022-12-01T15:57:35.281Z,23.20
2022-12-01T16:00:03.494Z,24.42
2022-12-01T16:02:33.629Z,24.45
2022-12-01T16:05:08.302Z,25.08
2022-12-01T16:08:11.630Z,24.53
2022-12-01T16:10:31.361Z,24.48
2022-12-01T16:13:39.501Z,23.55
2022-12-01T16:16:31.288Z,24.42
2022-12-01T16:19:03.410Z,22.90
2022-12-01T16:21:34.887Z,24.15
2022-12-01T16:24:04.416Z,23.98
2022-12-01T16:26:34.218Z,23.70
2022-12-01T16:29:03.347Z,23.70
2022-12-01T16:31:32.744Z,22.77
2022-12-01T16:34:13.931Z,24.23
2022-12-01T16:39:14.741Z,22.77
2022-12-01T16:41:44.620Z,23.25
2022-12-01T16:44:28.569Z,24.08
2022-12-01T16:46:57.404Z,24.45
2022-12-01T16:49:25.330Z,23.48
2022-12-01T16:51:57.279Z,24.67
2022-12-01T16:54:25.802Z,23.60
2022-12-01T16:56:53.547Z,23.80
2022-12-01T16:59:22.590Z,23.25
2022-12-01T17:01:52.686Z,23.50
2022-12-01T17:04:20.417Z,25.00
2022-12-01T17:06:48.124Z,25.33
2022-12-01T17:09:15.835Z,24.00
2022-12-01T17:11:43.620Z,22.75
2022-12-01T17:14:11.328Z,25.65
2022-12-01T17:16:40.368Z,23.98
2022-12-01T17:19:08.101Z,24.05
2022-12-01T17:21:36.074Z,25.52
2022-12-01T17:24:17.573Z,24.83
2022-12-01T17:26:49.324Z,22.30
2022-12-01T17:29:23.928Z,26.38
2022-12-01T17:31:53.225Z,22.70
2022-12-01T17:34:21.089Z,23.60
2022-12-01T17:36:48.813Z,24.85
2022-12-01T17:39:19.385Z,23.40
2022-12-01T17:41:47.200Z,23.98
2022-12-01T17:44:14.901Z,23.88
2022-12-01T17:46:42.710Z,24.45
2022-12-01T17:49:13.230Z,25.02
2022-12-01T17:51:41.594Z,24.42
2022-12-01T17:54:12.743Z,23.17
2022-12-01T17:56:42.965Z,23.02
2022-12-01T17:59:13.516Z,24.40
2022-12-01T18:01:43.247Z,23.52
2022-12-01T18:04:12.583Z,22.65
2022-12-01T18:06:40.431Z,24.35
2022-12-01T18:09:08.126Z,24.25
2022-12-01T18:11:35.796Z,24.83
2022-12-01T18:14:03.496Z,24.20
2022-12-01T18:16:32.570Z,24.90
2022-12-01T18:19:01.528Z,24.92
2022-12-01T18:21:30.687Z,22.90
2022-12-01T18:24:03.349Z,25.08
2022-12-01T18:26:32.302Z,24.77
2022-12-01T18:29:01.813Z,24.58
2022-12-01T18:31:30.684Z,23.20
2022-12-01T18:34:02.567Z,25.02
2022-12-01T18:36:33.206Z,24.95
2022-12-01T18:39:02.310Z,24.25
2022-12-01T18:41:30.540Z,24.70
2022-12-01T18:43:58.517Z,25.90
2022-12-01T18:46:26.292Z,24.80
2022-12-01T18:49:00.414Z,24.83
2022-12-01T18:51:29.222Z,22.88
2022-12-01T18:54:00.113Z,25.45
2022-12-01T18:56:28.733Z,25.08
2022-12-01T18:58:56.887Z,25.33
2022-12-01T19:01:26.965Z,23.85
2022-12-01T19:03:55.819Z,21.92
2022-12-01T19:06:24.467Z,22.92
2022-12-01T19:08:52.350Z,23.52
2022-12-01T19:11:21.890Z,22.75
2022-12-01T19:13:49.623Z,24.77
2022-12-01T19:16:19.730Z,24.70
2022-12-01T19:18:47.753Z,23.08
2022-12-01T19:21:17.571Z,23.30
2022-12-01T19:23:46.440Z,21.40
2022-12-01T19:26:16.329Z,23.40
2022-12-01T19:28:46.354Z,24.02
2022-12-01T19:31:15.725Z,23.20
2022-12-01T19:33:46.583Z,23.73
2022-12-01T19:36:16.767Z,24.70
2022-12-01T19:38:45.099Z,22.20
2022-12-01T19:41:13.869Z,22.67
2022-12-01T19:43:42.865Z,22.48
2022-12-01T19:46:13.555Z,22.88
2022-12-01T19:48:45.061Z,22.65
2022-12-01T19:51:19.791Z,23.13
2022-12-01T19:53:47.948Z,24.70
2022-12-01T19:56:15.790Z,25.25
2022-12-01T19:58:43.698Z,25.67
2022-12-01T20:01:14.914Z,24.73
2022-12-01T20:03:43.311Z,23.25
2022-12-01T20:06:13.615Z,24.17
2022-12-01T20:08:41.931Z,23.58
2022-12-01T20:11:10.238Z,25.50
2022-12-01T20:13:40.049Z,26.25
2022-12-01T20:16:10.166Z,24.77
2022-12-01T20:18:39.835Z,22.85
2022-12-01T20:21:09.315Z,22.45
2022-12-01T20:23:37.791Z,23.00
2022-12-01T20:26:08.248Z,22.58
2022-12-01T20:28:37.284Z,21.35
2022-12-01T20:31:09.544Z,23.80
2022-12-01T20:33:37.263Z,22.95
2022-12-01T20:36:06.931Z,24.83
2022-12-01T20:38:35.056Z,23.08
2022-12-01T20:41:02.757Z,22.00
2022-12-01T20:43:30.484Z,23.27
2022-12-01T20:45:58.248Z,23.80
2022-12-01T20:48:26.497Z,26.67
2022-12-01T20:50:54.391Z,26.45
2022-12-01T20:53:23.540Z,25.42
2022-12-01T20:55:51.270Z,23.45
2022-12-01T20:58:19.016Z,22.77
2022-12-01T21:00:46.768Z,21.05
2022-12-01T21:03:15.410Z,22.00
2022-12-01T21:05:44.554Z,22.58
2022-12-01T21:08:14.559Z,23.23
2022-12-01T21:10:46.857Z,27.23
2022-12-01T21:13:37.095Z,25.95
2022-12-01T21:16:12.367Z,25.65
2022-12-01T21:18:47.210Z,23.25
2022-12-01T21:21:23.165Z,22.65
2022-12-01T21:24:02.160Z,24.98
2022-12-01T21:26:31.334Z,24.10
2022-12-01T21:29:00.927Z,24.45
2022-12-01T21:31:29.113Z,23.63
2022-12-01T21:33:57.350Z,23.70
2022-12-01T21:36:29.941Z,24.67
2022-12-01T21:39:15.390Z,23.83
2022-12-01T21:41:44.480Z,22.73
2022-12-01T21:44:16.080Z,22.75
2022-12-01T21:46:44.215Z,24.75
2022-12-01T21:49:14.611Z,24.80
2022-12-01T21:51:42.273Z,24.52
2022-12-01T21:54:14.863Z,23.90
2022-12-01T21:56:44.141Z,24.63
2022-12-01T21:59:19.948Z,23.10
2022-12-01T22:01:48.979Z,23.35
2022-12-01T22:04:20.406Z,23.85
2022-12-01T22:06:50.057Z,24.60
2022-12-01T22:09:24.255Z,23.00
2022-12-01T22:11:55.643Z,23.45
2022-12-01T22:14:25.214Z,25.05
2022-12-01T22:16:57.218Z,23.38
2022-12-01T22:19:29.378Z,25.95
2022-12-01T22:22:02.645Z,25.65
2022-12-01T22:24:38.832Z,27.15
2022-12-01T22:27:33.181Z,24.05
2022-12-01T22:30:03.381Z,23.75
2022-12-01T22:32:45.080Z,23.35
2022-12-01T22:35:25.632Z,25.08
2022-12-01T22:37:55.190Z,25.35
2022-12-01T22:40:38.497Z,26.95
2022-12-01T22:43:30.201Z,25.67
2022-12-01T22:46:18.179Z,25.42
2022-12-01T22:48:48.143Z,25.70
2022-12-01T22:51:40.634Z,24.55
2022-12-01T22:54:27.025Z,24.25
2022-12-01T23:03:33.338Z,24.85
2022-12-01T23:06:01.002Z,26.17
2022-12-01T23:08:28.695Z,27.70
2022-12-01T23:10:56.391Z,26.10
2022-12-01T23:13:25.656Z,27.25
2022-12-01T23:15:54.533Z,26.48
2022-12-01T23:18:25.341Z,26.40
2022-12-01T23:20:56.237Z,24.25
2022-12-01T23:23:28.292Z,25.83
2022-12-01T23:25:56.462Z,26.30
2022-12-01T23:28:25.140Z,25.30
2022-12-01T23:30:55.782Z,25.75
2022-12-01T23:33:25.357Z,23.85
2022-12-01T23:35:57.153Z,24.13
2022-12-01T23:38:32.361Z,24.08
2022-12-01T23:41:02.108Z,24.65
2022-12-01T23:43:33.019Z,23.88
2022-12-01T23:46:05.083Z,22.42
2022-12-01T23:48:35.679Z,24.83
2022-12-01T23:51:05.941Z,24.10
2022-12-01T23:53:35.532Z,26.42
2022-12-01T23:56:10.177Z,27.33
2022-12-01T23:58:37.891Z,26.83
